sensor_id;sensor_type;location;lat;lon;timestamp;P1;durP1;ratioP1;P2;durP2;ratioP2
75171;SDS011;63750;52.418;20.742;2022-10-16T00:00:49;18.20;;;16.40;;
75171;SDS011;63750;52.418;20.742;2022-10-16T00:03:19;18.60;;;16.70;;
75171;SDS011;63750;52.418;20.742;2022-10-16T00:05:47;18.70;;;16.80;;
75171;SDS011;63750;52.418;20.742;2022-10-16T00:08:15;18.60;;;16.80;;
75171;SDS011;63750;52.418;20.742;2022-10-16T00:10:43;19.00;;;17.10;;
75171;SDS011;63750;52.418;20.742;2022-10-16T00:13:11;19.70;;;16.90;;
75171;SDS011;63750;52.418;20.742;2022-10-16T00:15:40;17.40;;;15.60;;
75171;SDS011;63750;52.418;20.742;2022-10-16T00:18:08;18.50;;;16.70;;
75171;SDS011;63750;52.418;20.742;2022-10-16T00:20:37;17.70;;;15.80;;
75171;SDS011;63750;52.418;20.742;2022-10-16T00:23:05;18.20;;;16.30;;
75171;SDS011;63750;52.418;20.742;2022-10-16T00:25:33;18.30;;;16.00;;
75171;SDS011;63750;52.418;20.742;2022-10-16T00:28:02;18.10;;;16.10;;
75171;SDS011;63750;52.418;20.742;2022-10-16T00:30:30;17.00;;;15.40;;
75171;SDS011;63750;52.418;20.742;2022-10-16T00:32:58;19.30;;;16.70;;
75171;SDS011;63750;52.418;20.742;2022-10-16T00:35:27;20.00;;;16.50;;
75171;SDS011;63750;52.418;20.742;2022-10-16T00:37:55;17.50;;;15.80;;
75171;SDS011;63750;52.418;20.742;2022-10-16T00:40:24;18.60;;;16.70;;
75171;SDS011;63750;52.418;20.742;2022-10-16T00:42:52;19.60;;;17.50;;
75171;SDS011;63750;52.418;20.742;2022-10-16T00:45:20;19.00;;;17.00;;
75171;SDS011;63750;52.418;20.742;2022-10-16T00:47:49;18.90;;;16.80;;
75171;SDS011;63750;52.418;20.742;2022-10-16T00:50:21;18.30;;;16.40;;
75171;SDS011;63750;52.418;20.742;2022-10-16T00:52:54;19.80;;;16.00;;
75171;SDS011;63750;52.418;20.742;2022-10-16T00:55:25;17.30;;;15.50;;
75171;SDS011;63750;52.418;20.742;2022-10-16T00:57:53;17.50;;;15.60;;
75171;SDS011;63750;52.418;20.742;2022-10-16T01:00:24;17.90;;;16.10;;
75171;SDS011;63750;52.418;20.742;2022-10-16T01:02:54;17.70;;;16.00;;
75171;SDS011;63750;52.418;20.742;2022-10-16T01:05:25;18.40;;;16.00;;
75171;SDS011;63750;52.418;20.742;2022-10-16T01:08:04;16.90;;;15.20;;
75171;SDS011;63750;52.418;20.742;2022-10-16T01:10:40;16.90;;;15.20;;
75171;SDS011;63750;52.418;20.742;2022-10-16T01:13:16;18.20;;;16.30;;
75171;SDS011;63750;52.418;20.742;2022-10-16T01:15:52;17.70;;;15.50;;
75171;SDS011;63750;52.418;20.742;2022-10-16T01:18:28;17.90;;;16.10;;
75171;SDS011;63750;52.418;20.742;2022-10-16T01:21:02;16.80;;;15.10;;
75171;SDS011;63750;52.418;20.742;2022-10-16T01:23:36;19.40;;;16.00;;
75171;SDS011;63750;52.418;20.742;2022-10-16T01:26:18;18.10;;;16.20;;
75171;SDS011;63750;52.418;20.742;2022-10-16T01:28:57;17.30;;;15.30;;
75171;SDS011;63750;52.418;20.742;2022-10-16T01:31:32;18.20;;;16.40;;
75171;SDS011;63750;52.418;20.742;2022-10-16T01:34:07;17.70;;;15.90;;
75171;SDS011;63750;52.418;20.742;2022-10-16T01:36:41;18.30;;;16.50;;
75171;SDS011;63750;52.418;20.742;2022-10-16T01:39:16;18.20;;;16.30;;
75171;SDS011;63750;52.418;20.742;2022-10-16T01:41:51;17.90;;;16.00;;
75171;SDS011;63750;52.418;20.742;2022-10-16T01:44:22;17.50;;;15.70;;
75171;SDS011;63750;52.418;20.742;2022-10-16T01:46:54;18.40;;;15.90;;
75171;SDS011;63750;52.418;20.742;2022-10-16T01:49:24;18.40;;;16.30;;
75171;SDS011;63750;52.418;20.742;2022-10-16T01:51:56;17.30;;;15.60;;
75171;SDS011;63750;52.418;20.742;2022-10-16T01:54:31;18.90;;;16.60;;
75171;SDS011;63750;52.418;20.742;2022-10-16T01:57:02;17.70;;;15.80;;
75171;SDS011;63750;52.418;20.742;2022-10-16T01:59:35;18.50;;;16.00;;
75171;SDS011;63750;52.418;20.742;2022-10-16T02:02:08;18.70;;;16.80;;
75171;SDS011;63750;52.418;20.742;2022-10-16T02:04:41;19.50;;;17.60;;
75171;SDS011;63750;52.418;20.742;2022-10-16T02:07:15;17.70;;;15.90;;
75171;SDS011;63750;52.418;20.742;2022-10-16T02:09:43;18.60;;;16.60;;
75171;SDS011;63750;52.418;20.742;2022-10-16T02:12:13;17.90;;;16.20;;
75171;SDS011;63750;52.418;20.742;2022-10-16T02:14:47;19.50;;;17.00;;
75171;SDS011;63750;52.418;20.742;2022-10-16T02:17:16;19.30;;;17.40;;
75171;SDS011;63750;52.418;20.742;2022-10-16T02:19:45;19.20;;;17.20;;
75171;SDS011;63750;52.418;20.742;2022-10-16T02:22:19;19.80;;;17.50;;
75171;SDS011;63750;52.418;20.742;2022-10-16T02:24:53;19.00;;;17.10;;
75171;SDS011;63750;52.418;20.742;2022-10-16T02:27:26;17.40;;;15.70;;
75171;SDS011;63750;52.418;20.742;2022-10-16T02:30:02;19.50;;;17.10;;
75171;SDS011;63750;52.418;20.742;2022-10-16T02:32:33;19.30;;;17.40;;
75171;SDS011;63750;52.418;20.742;2022-10-16T02:35:03;21.40;;;17.00;;
75171;SDS011;63750;52.418;20.742;2022-10-16T02:37:33;18.90;;;16.90;;
75171;SDS011;63750;52.418;20.742;2022-10-16T02:40:02;19.40;;;16.80;;
75171;SDS011;63750;52.418;20.742;2022-10-16T02:42:34;19.80;;;17.80;;
75171;SDS011;63750;52.418;20.742;2022-10-16T02:45:04;19.50;;;17.40;;
75171;SDS011;63750;52.418;20.742;2022-10-16T02:47:34;18.50;;;16.50;;
75171;SDS011;63750;52.418;20.742;2022-10-16T02:50:03;18.80;;;16.90;;
75171;SDS011;63750;52.418;20.742;2022-10-16T02:52:32;19.00;;;17.00;;
75171;SDS011;63750;52.418;20.742;2022-10-16T02:55:00;19.20;;;17.10;;
75171;SDS011;63750;52.418;20.742;2022-10-16T02:57:29;20.00;;;17.40;;
75171;SDS011;63750;52.418;20.742;2022-10-16T02:59:58;18.70;;;16.90;;
75171;SDS011;63750;52.418;20.742;2022-10-16T03:02:26;18.70;;;16.90;;
75171;SDS011;63750;52.418;20.742;2022-10-16T03:04:54;19.50;;;17.50;;
75171;SDS011;63750;52.418;20.742;2022-10-16T03:07:22;19.40;;;17.50;;
75171;SDS011;63750;52.418;20.742;2022-10-16T03:09:51;19.10;;;17.10;;
75171;SDS011;63750;52.418;20.742;2022-10-16T03:12:19;19.40;;;17.40;;
75171;SDS011;63750;52.418;20.742;2022-10-16T03:14:48;21.10;;;17.80;;
75171;SDS011;63750;52.418;20.742;2022-10-16T03:17:16;19.80;;;17.70;;
75171;SDS011;63750;52.418;20.742;2022-10-16T03:19:44;20.60;;;18.10;;
75171;SDS011;63750;52.418;20.742;2022-10-16T03:22:12;20.50;;;18.50;;
75171;SDS011;63750;52.418;20.742;2022-10-16T03:24:41;20.60;;;18.60;;
75171;SDS011;63750;52.418;20.742;2022-10-16T03:27:09;21.00;;;18.10;;
75171;SDS011;63750;52.418;20.742;2022-10-16T03:29:37;20.30;;;18.00;;
75171;SDS011;63750;52.418;20.742;2022-10-16T03:32:05;20.30;;;18.20;;
75171;SDS011;63750;52.418;20.742;2022-10-16T03:34:34;20.60;;;18.50;;
75171;SDS011;63750;52.418;20.742;2022-10-16T03:37:02;20.30;;;18.30;;
75171;SDS011;63750;52.418;20.742;2022-10-16T03:39:30;20.90;;;18.40;;
75171;SDS011;63750;52.418;20.742;2022-10-16T03:41:58;20.70;;;18.60;;
75171;SDS011;63750;52.418;20.742;2022-10-16T03:44:26;20.90;;;18.80;;
75171;SDS011;63750;52.418;20.742;2022-10-16T03:46:55;21.10;;;18.90;;
75171;SDS011;63750;52.418;20.742;2022-10-16T03:49:23;21.20;;;19.00;;
75171;SDS011;63750;52.418;20.742;2022-10-16T03:51:52;19.90;;;17.90;;
75171;SDS011;63750;52.418;20.742;2022-10-16T03:54:20;20.70;;;18.50;;
75171;SDS011;63750;52.418;20.742;2022-10-16T03:56:49;23.90;;;18.60;;
75171;SDS011;63750;52.418;20.742;2022-10-16T03:59:17;21.10;;;18.90;;
75171;SDS011;63750;52.418;20.742;2022-10-16T04:01:45;21.00;;;18.80;;
75171;SDS011;63750;52.418;20.742;2022-10-16T04:04:13;21.10;;;18.90;;
75171;SDS011;63750;52.418;20.742;2022-10-16T04:06:41;21.70;;;19.50;;
75171;SDS011;63750;52.418;20.742;2022-10-16T04:09:09;22.60;;;20.10;;
75171;SDS011;63750;52.418;20.742;2022-10-16T04:11:38;21.90;;;19.40;;
75171;SDS011;63750;52.418;20.742;2022-10-16T04:14:06;21.90;;;19.60;;
75171;SDS011;63750;52.418;20.742;2022-10-16T04:16:34;21.20;;;19.00;;
75171;SDS011;63750;52.418;20.742;2022-10-16T04:19:03;22.20;;;19.90;;
75171;SDS011;63750;52.418;20.742;2022-10-16T04:21:31;24.50;;;19.40;;
75171;SDS011;63750;52.418;20.742;2022-10-16T04:23:59;22.10;;;19.70;;
75171;SDS011;63750;52.418;20.742;2022-10-16T04:26:27;22.80;;;20.20;;
75171;SDS011;63750;52.418;20.742;2022-10-16T04:28:56;23.30;;;20.10;;
75171;SDS011;63750;52.418;20.742;2022-10-16T04:31:24;22.40;;;20.00;;
75171;SDS011;63750;52.418;20.742;2022-10-16T04:33:52;23.30;;;19.90;;
75171;SDS011;63750;52.418;20.742;2022-10-16T04:36:20;21.40;;;19.10;;
75171;SDS011;63750;52.418;20.742;2022-10-16T04:38:48;23.70;;;20.40;;
75171;SDS011;63750;52.418;20.742;2022-10-16T04:41:17;22.70;;;20.30;;
75171;SDS011;63750;52.418;20.742;2022-10-16T04:43:45;22.00;;;19.80;;
75171;SDS011;63750;52.418;20.742;2022-10-16T04:46:14;22.50;;;20.10;;
75171;SDS011;63750;52.418;20.742;2022-10-16T04:48:42;22.80;;;20.40;;
75171;SDS011;63750;52.418;20.742;2022-10-16T04:51:10;23.00;;;20.50;;
75171;SDS011;63750;52.418;20.742;2022-10-16T04:53:39;29.30;;;21.10;;
75171;SDS011;63750;52.418;20.742;2022-10-16T04:56:07;22.30;;;19.90;;
75171;SDS011;63750;52.418;20.742;2022-10-16T04:58:35;22.90;;;20.40;;
75171;SDS011;63750;52.418;20.742;2022-10-16T05:01:04;22.90;;;20.50;;
75171;SDS011;63750;52.418;20.742;2022-10-16T05:03:32;23.70;;;20.70;;
75171;SDS011;63750;52.418;20.742;2022-10-16T05:06:01;23.30;;;21.00;;
75171;SDS011;63750;52.418;20.742;2022-10-16T05:08:31;24.10;;;21.40;;
75171;SDS011;63750;52.418;20.742;2022-10-16T05:10:59;23.30;;;20.80;;
75171;SDS011;63750;52.418;20.742;2022-10-16T05:13:28;22.50;;;20.10;;
75171;SDS011;63750;52.418;20.742;2022-10-16T05:15:56;25.00;;;21.40;;
75171;SDS011;63750;52.418;20.742;2022-10-16T05:18:25;23.80;;;21.30;;
75171;SDS011;63750;52.418;20.742;2022-10-16T05:20:53;23.20;;;20.80;;
75171;SDS011;63750;52.418;20.742;2022-10-16T05:23:21;23.40;;;20.90;;
75171;SDS011;63750;52.418;20.742;2022-10-16T05:25:53;24.50;;;21.90;;
75171;SDS011;63750;52.418;20.742;2022-10-16T05:28:22;26.80;;;22.50;;
75171;SDS011;63750;52.418;20.742;2022-10-16T05:30:50;23.30;;;20.80;;
75171;SDS011;63750;52.418;20.742;2022-10-16T05:33:19;24.10;;;21.50;;
75171;SDS011;63750;52.418;20.742;2022-10-16T05:35:47;23.40;;;20.90;;
75171;SDS011;63750;52.418;20.742;2022-10-16T05:38:16;23.50;;;21.00;;
75171;SDS011;63750;52.418;20.742;2022-10-16T05:40:49;24.10;;;20.80;;
75171;SDS011;63750;52.418;20.742;2022-10-16T05:43:18;23.90;;;21.40;;
75171;SDS011;63750;52.418;20.742;2022-10-16T05:45:54;23.20;;;20.70;;
75171;SDS011;63750;52.418;20.742;2022-10-16T05:48:24;25.70;;;21.70;;
75171;SDS011;63750;52.418;20.742;2022-10-16T05:51:00;25.50;;;22.10;;
75171;SDS011;63750;52.418;20.742;2022-10-16T05:53:30;24.30;;;21.70;;
75171;SDS011;63750;52.418;20.742;2022-10-16T05:55:59;23.10;;;20.70;;
75171;SDS011;63750;52.418;20.742;2022-10-16T05:58:30;25.80;;;22.30;;
75171;SDS011;63750;52.418;20.742;2022-10-16T06:01:00;24.60;;;22.00;;
75171;SDS011;63750;52.418;20.742;2022-10-16T06:03:30;26.10;;;22.80;;
75171;SDS011;63750;52.418;20.742;2022-10-16T06:05:59;24.00;;;21.50;;
75171;SDS011;63750;52.418;20.742;2022-10-16T06:08:35;25.00;;;22.30;;
75171;SDS011;63750;52.418;20.742;2022-10-16T06:11:05;23.50;;;21.00;;
75171;SDS011;63750;52.418;20.742;2022-10-16T06:13:35;23.60;;;21.10;;
75171;SDS011;63750;52.418;20.742;2022-10-16T06:16:05;24.70;;;21.50;;
75171;SDS011;63750;52.418;20.742;2022-10-16T06:18:35;23.50;;;21.10;;
75171;SDS011;63750;52.418;20.742;2022-10-16T06:21:08;23.30;;;20.90;;
75171;SDS011;63750;52.418;20.742;2022-10-16T06:23:38;22.80;;;20.40;;
75171;SDS011;63750;52.418;20.742;2022-10-16T06:26:08;23.40;;;21.00;;
75171;SDS011;63750;52.418;20.742;2022-10-16T06:28:37;24.50;;;20.60;;
75171;SDS011;63750;52.418;20.742;2022-10-16T06:31:07;24.00;;;21.40;;
75171;SDS011;63750;52.418;20.742;2022-10-16T06:33:36;23.60;;;20.60;;
75171;SDS011;63750;52.418;20.742;2022-10-16T06:36:06;23.00;;;20.40;;
75171;SDS011;63750;52.418;20.742;2022-10-16T06:38:36;22.40;;;20.00;;
75171;SDS011;63750;52.418;20.742;2022-10-16T06:41:05;21.60;;;19.40;;
75171;SDS011;63750;52.418;20.742;2022-10-16T06:43:35;20.90;;;18.70;;
75171;SDS011;63750;52.418;20.742;2022-10-16T06:46:04;23.60;;;20.20;;
75171;SDS011;63750;52.418;20.742;2022-10-16T06:48:35;22.90;;;20.20;;
75171;SDS011;63750;52.418;20.742;2022-10-16T06:51:04;21.10;;;19.00;;
75171;SDS011;63750;52.418;20.742;2022-10-16T06:53:36;20.90;;;18.80;;
75171;SDS011;63750;52.418;20.742;2022-10-16T06:56:09;21.70;;;19.30;;
75171;SDS011;63750;52.418;20.742;2022-10-16T06:58:39;20.70;;;18.60;;
75171;SDS011;63750;52.418;20.742;2022-10-16T07:01:08;20.70;;;18.70;;
75171;SDS011;63750;52.418;20.742;2022-10-16T07:03:37;20.80;;;18.10;;
75171;SDS011;63750;52.418;20.742;2022-10-16T07:06:09;20.50;;;18.40;;
75171;SDS011;63750;52.418;20.742;2022-10-16T07:08:40;22.00;;;19.80;;
75171;SDS011;63750;52.418;20.742;2022-10-16T07:11:09;20.50;;;18.30;;
75171;SDS011;63750;52.418;20.742;2022-10-16T07:13:40;20.90;;;18.70;;
75171;SDS011;63750;52.418;20.742;2022-10-16T07:16:12;20.80;;;18.60;;
75171;SDS011;63750;52.418;20.742;2022-10-16T07:18:42;22.10;;;19.80;;
75171;SDS011;63750;52.418;20.742;2022-10-16T07:21:11;20.50;;;18.30;;
75171;SDS011;63750;52.418;20.742;2022-10-16T07:23:43;21.50;;;19.00;;
75171;SDS011;63750;52.418;20.742;2022-10-16T07:26:11;21.00;;;18.90;;
75171;SDS011;63750;52.418;20.742;2022-10-16T07:28:39;20.30;;;18.20;;
75171;SDS011;63750;52.418;20.742;2022-10-16T07:31:10;21.60;;;19.00;;
75171;SDS011;63750;52.418;20.742;2022-10-16T07:33:40;20.90;;;18.70;;
75171;SDS011;63750;52.418;20.742;2022-10-16T07:36:10;21.20;;;18.90;;
75171;SDS011;63750;52.418;20.742;2022-10-16T07:38:39;22.40;;;19.70;;
75171;SDS011;63750;52.418;20.742;2022-10-16T07:41:08;21.00;;;18.80;;
75171;SDS011;63750;52.418;20.742;2022-10-16T07:43:38;20.80;;;18.60;;
75171;SDS011;63750;52.418;20.742;2022-10-16T07:46:11;20.40;;;18.30;;
75171;SDS011;63750;52.418;20.742;2022-10-16T07:48:40;20.80;;;18.70;;
75171;SDS011;63750;52.418;20.742;2022-10-16T07:51:10;21.00;;;17.80;;
75171;SDS011;63750;52.418;20.742;2022-10-16T07:53:39;20.20;;;18.20;;
75171;SDS011;63750;52.418;20.742;2022-10-16T07:56:07;20.60;;;18.60;;
75171;SDS011;63750;52.418;20.742;2022-10-16T07:58:37;20.50;;;18.30;;
75171;SDS011;63750;52.418;20.742;2022-10-16T08:01:06;21.20;;;18.70;;
75171;SDS011;63750;52.418;20.742;2022-10-16T08:03:36;19.50;;;17.50;;
75171;SDS011;63750;52.418;20.742;2022-10-16T08:06:04;21.30;;;19.10;;
75171;SDS011;63750;52.418;20.742;2022-10-16T08:08:33;22.00;;;17.80;;
75171;SDS011;63750;52.418;20.742;2022-10-16T08:11:01;19.90;;;17.90;;
75171;SDS011;63750;52.418;20.742;2022-10-16T08:13:29;21.10;;;18.90;;
75171;SDS011;63750;52.418;20.742;2022-10-16T08:15:58;20.30;;;18.10;;
75171;SDS011;63750;52.418;20.742;2022-10-16T08:18:27;21.10;;;18.60;;
75171;SDS011;63750;52.418;20.742;2022-10-16T08:20:58;19.50;;;17.60;;
75171;SDS011;63750;52.418;20.742;2022-10-16T08:23:27;19.60;;;17.70;;
75171;SDS011;63750;52.418;20.742;2022-10-16T08:25:56;19.50;;;17.50;;
75171;SDS011;63750;52.418;20.742;2022-10-16T08:28:30;19.70;;;17.70;;
75171;SDS011;63750;52.418;20.742;2022-10-16T08:31:05;20.10;;;18.10;;
75171;SDS011;63750;52.418;20.742;2022-10-16T08:33:36;20.20;;;18.00;;
75171;SDS011;63750;52.418;20.742;2022-10-16T08:36:05;20.30;;;18.20;;
75171;SDS011;63750;52.418;20.742;2022-10-16T08:38:35;19.70;;;17.60;;
75171;SDS011;63750;52.418;20.742;2022-10-16T08:41:13;19.70;;;17.80;;
75171;SDS011;63750;52.418;20.742;2022-10-16T08:43:55;21.10;;;18.90;;
75171;SDS011;63750;52.418;20.742;2022-10-16T08:46:37;19.70;;;17.70;;
75171;SDS011;63750;52.418;20.742;2022-10-16T08:49:17;19.90;;;17.90;;
75171;SDS011;63750;52.418;20.742;2022-10-16T08:51:46;20.30;;;18.10;;
75171;SDS011;63750;52.418;20.742;2022-10-16T08:54:19;19.90;;;17.60;;
75171;SDS011;63750;52.418;20.742;2022-10-16T08:56:55;20.70;;;17.60;;
75171;SDS011;63750;52.418;20.742;2022-10-16T08:59:27;20.30;;;17.10;;
75171;SDS011;63750;52.418;20.742;2022-10-16T09:01:55;20.00;;;17.90;;
75171;SDS011;63750;52.418;20.742;2022-10-16T09:07:18;19.50;;;17.10;;
75171;SDS011;63750;52.418;20.742;2022-10-16T09:09:56;19.10;;;17.10;;
75171;SDS011;63750;52.418;20.742;2022-10-16T09:12:36;20.50;;;16.80;;
75171;SDS011;63750;52.418;20.742;2022-10-16T09:15:16;23.90;;;17.50;;
75171;SDS011;63750;52.418;20.742;2022-10-16T09:17:56;18.10;;;16.40;;
75171;SDS011;63750;52.418;20.742;2022-10-16T09:20:34;18.80;;;16.80;;
75171;SDS011;63750;52.418;20.742;2022-10-16T09:23:19;18.70;;;16.80;;
75171;SDS011;63750;52.418;20.742;2022-10-16T09:25:52;18.40;;;16.70;;
75171;SDS011;63750;52.418;20.742;2022-10-16T09:28:21;17.00;;;15.50;;
75171;SDS011;63750;52.418;20.742;2022-10-16T09:30:50;18.00;;;16.20;;
75171;SDS011;63750;52.418;20.742;2022-10-16T09:33:19;16.10;;;14.60;;
75171;SDS011;63750;52.418;20.742;2022-10-16T09:35:50;18.00;;;15.40;;
75171;SDS011;63750;52.418;20.742;2022-10-16T09:38:25;16.60;;;14.90;;
75171;SDS011;63750;52.418;20.742;2022-10-16T09:40:56;16.10;;;14.00;;
75171;SDS011;63750;52.418;20.742;2022-10-16T09:43:27;16.60;;;14.90;;
75171;SDS011;63750;52.418;20.742;2022-10-16T09:46:02;16.50;;;14.90;;
75171;SDS011;63750;52.418;20.742;2022-10-16T09:48:33;15.10;;;13.70;;
75171;SDS011;63750;52.418;20.742;2022-10-16T09:51:06;16.00;;;14.50;;
75171;SDS011;63750;52.418;20.742;2022-10-16T09:53:46;16.30;;;14.70;;
75171;SDS011;63750;52.418;20.742;2022-10-16T09:56:22;15.90;;;14.30;;
75171;SDS011;63750;52.418;20.742;2022-10-16T09:58:55;15.80;;;14.30;;
75171;SDS011;63750;52.418;20.742;2022-10-16T10:01:28;16.50;;;14.50;;
75171;SDS011;63750;52.418;20.742;2022-10-16T10:04:02;16.50;;;14.80;;
75171;SDS011;63750;52.418;20.742;2022-10-16T10:06:31;16.10;;;14.50;;
75171;SDS011;63750;52.418;20.742;2022-10-16T10:09:02;15.50;;;13.90;;
75171;SDS011;63750;52.418;20.742;2022-10-16T10:11:47;15.50;;;14.00;;
75171;SDS011;63750;52.418;20.742;2022-10-16T10:14:19;15.80;;;14.40;;
75171;SDS011;63750;52.418;20.742;2022-10-16T10:16:50;16.40;;;14.70;;
75171;SDS011;63750;52.418;20.742;2022-10-16T10:19:20;16.50;;;14.90;;
75171;SDS011;63750;52.418;20.742;2022-10-16T10:21:50;17.50;;;15.70;;
75171;SDS011;63750;52.418;20.742;2022-10-16T10:24:19;16.20;;;14.30;;
75171;SDS011;63750;52.418;20.742;2022-10-16T10:26:50;15.10;;;13.60;;
75171;SDS011;63750;52.418;20.742;2022-10-16T10:29:28;17.20;;;15.20;;
75171;SDS011;63750;52.418;20.742;2022-10-16T10:32:08;16.10;;;14.40;;
75171;SDS011;63750;52.418;20.742;2022-10-16T10:34:57;15.80;;;14.20;;
75171;SDS011;63750;52.418;20.742;2022-10-16T10:37:37;18.00;;;15.10;;
75171;SDS011;63750;52.418;20.742;2022-10-16T10:40:30;15.40;;;13.90;;
75171;SDS011;63750;52.418;20.742;2022-10-16T10:43:06;16.50;;;14.90;;
75171;SDS011;63750;52.418;20.742;2022-10-16T10:45:46;16.50;;;15.00;;
75171;SDS011;63750;52.418;20.742;2022-10-16T10:48:21;16.10;;;14.30;;
75171;SDS011;63750;52.418;20.742;2022-10-16T10:51:01;16.30;;;14.70;;
75171;SDS011;63750;52.418;20.742;2022-10-16T10:53:38;16.40;;;14.80;;
75171;SDS011;63750;52.418;20.742;2022-10-16T10:56:18;17.70;;;15.30;;
75171;SDS011;63750;52.418;20.742;2022-10-16T10:59:12;16.20;;;14.50;;
75171;SDS011;63750;52.418;20.742;2022-10-16T11:01:56;17.00;;;15.20;;
75171;SDS011;63750;52.418;20.742;2022-10-16T11:04:32;17.00;;;15.30;;
75171;SDS011;63750;52.418;20.742;2022-10-16T11:07:10;16.20;;;14.60;;
75171;SDS011;63750;52.418;20.742;2022-10-16T11:09:44;17.00;;;15.40;;
75171;SDS011;63750;52.418;20.742;2022-10-16T11:12:16;16.50;;;14.90;;
75171;SDS011;63750;52.418;20.742;2022-10-16T11:14:48;15.60;;;13.90;;
75171;SDS011;63750;52.418;20.742;2022-10-16T11:17:23;15.50;;;13.80;;
75171;SDS011;63750;52.418;20.742;2022-10-16T11:19:56;17.10;;;14.70;;
75171;SDS011;63750;52.418;20.742;2022-10-16T11:22:30;17.10;;;15.10;;
75171;SDS011;63750;52.418;20.742;2022-10-16T11:25:04;16.00;;;14.30;;
75171;SDS011;63750;52.418;20.742;2022-10-16T11:27:44;16.00;;;14.40;;
75171;SDS011;63750;52.418;20.742;2022-10-16T11:30:18;16.10;;;14.50;;
75171;SDS011;63750;52.418;20.742;2022-10-16T11:33:02;16.00;;;14.30;;
75171;SDS011;63750;52.418;20.742;2022-10-16T11:35:40;18.00;;;15.80;;
75171;SDS011;63750;52.418;20.742;2022-10-16T11:38:17;18.40;;;16.50;;
75171;SDS011;63750;52.418;20.742;2022-10-16T11:40:53;18.20;;;16.20;;
75171;SDS011;63750;52.418;20.742;2022-10-16T11:43:26;19.30;;;17.10;;
75171;SDS011;63750;52.418;20.742;2022-10-16T11:46:01;20.40;;;18.00;;
75171;SDS011;63750;52.418;20.742;2022-10-16T11:48:35;16.70;;;15.00;;
75171;SDS011;63750;52.418;20.742;2022-10-16T11:51:08;16.50;;;14.80;;
75171;SDS011;63750;52.418;20.742;2022-10-16T11:53:44;16.10;;;14.50;;
75171;SDS011;63750;52.418;20.742;2022-10-16T11:56:18;17.00;;;15.30;;
75171;SDS011;63750;52.418;20.742;2022-10-16T11:58:50;16.40;;;14.80;;
75171;SDS011;63750;52.418;20.742;2022-10-16T12:01:25;15.70;;;14.20;;
75171;SDS011;63750;52.418;20.742;2022-10-16T12:04:01;19.10;;;17.40;;
75171;SDS011;63750;52.418;20.742;2022-10-16T12:06:42;16.10;;;14.50;;
75171;SDS011;63750;52.418;20.742;2022-10-16T12:09:15;17.20;;;15.60;;
75171;SDS011;63750;52.418;20.742;2022-10-16T12:11:49;16.20;;;14.60;;
75171;SDS011;63750;52.418;20.742;2022-10-16T12:14:34;17.60;;;15.10;;
75171;SDS011;63750;52.418;20.742;2022-10-16T12:19:58;16.30;;;14.70;;
75171;SDS011;63750;52.418;20.742;2022-10-16T12:22:33;17.40;;;15.10;;
75171;SDS011;63750;52.418;20.742;2022-10-16T12:25:03;15.40;;;14.00;;
75171;SDS011;63750;52.418;20.742;2022-10-16T12:27:32;14.20;;;12.90;;
75171;SDS011;63750;52.418;20.742;2022-10-16T12:30:01;15.60;;;14.00;;
75171;SDS011;63750;52.418;20.742;2022-10-16T12:32:32;15.40;;;13.90;;
75171;SDS011;63750;52.418;20.742;2022-10-16T12:35:02;14.80;;;13.20;;
75171;SDS011;63750;52.418;20.742;2022-10-16T12:37:34;18.60;;;16.10;;
75171;SDS011;63750;52.418;20.742;2022-10-16T12:40:12;16.20;;;14.70;;
75171;SDS011;63750;52.418;20.742;2022-10-16T12:42:43;14.30;;;12.80;;
75171;SDS011;63750;52.418;20.742;2022-10-16T12:45:24;14.30;;;12.90;;
75171;SDS011;63750;52.418;20.742;2022-10-16T12:47:55;14.70;;;13.30;;
75171;SDS011;63750;52.418;20.742;2022-10-16T12:50:32;14.60;;;13.10;;
75171;SDS011;63750;52.418;20.742;2022-10-16T12:53:03;15.70;;;14.00;;
75171;SDS011;63750;52.418;20.742;2022-10-16T12:55:45;15.00;;;13.60;;
75171;SDS011;63750;52.418;20.742;2022-10-16T12:58:36;14.60;;;13.10;;
75171;SDS011;63750;52.418;20.742;2022-10-16T13:01:19;16.70;;;14.90;;
75171;SDS011;63750;52.418;20.742;2022-10-16T13:04:00;16.20;;;13.40;;
75171;SDS011;63750;52.418;20.742;2022-10-16T13:06:43;15.20;;;13.70;;
75171;SDS011;63750;52.418;20.742;2022-10-16T13:09:20;15.60;;;14.20;;
75171;SDS011;63750;52.418;20.742;2022-10-16T13:12:05;15.00;;;13.50;;
75171;SDS011;63750;52.418;20.742;2022-10-16T13:15:03;15.70;;;14.10;;
75171;SDS011;63750;52.418;20.742;2022-10-16T13:17:52;16.60;;;15.00;;
75171;SDS011;63750;52.418;20.742;2022-10-16T13:20:28;14.90;;;13.40;;
75171;SDS011;63750;52.418;20.742;2022-10-16T13:23:04;15.00;;;13.60;;
75171;SDS011;63750;52.418;20.742;2022-10-16T13:25:43;14.40;;;13.00;;
75171;SDS011;63750;52.418;20.742;2022-10-16T13:28:28;15.80;;;14.30;;
75171;SDS011;63750;52.418;20.742;2022-10-16T13:31:00;16.50;;;14.90;;
75171;SDS011;63750;52.418;20.742;2022-10-16T13:33:31;16.00;;;14.40;;
75171;SDS011;63750;52.418;20.742;2022-10-16T13:36:02;16.80;;;15.00;;
75171;SDS011;63750;52.418;20.742;2022-10-16T13:38:33;16.20;;;14.60;;
75171;SDS011;63750;52.418;20.742;2022-10-16T13:41:03;16.60;;;14.90;;
75171;SDS011;63750;52.418;20.742;2022-10-16T13:43:33;16.50;;;14.80;;
75171;SDS011;63750;52.418;20.742;2022-10-16T13:46:05;15.80;;;14.20;;
75171;SDS011;63750;52.418;20.742;2022-10-16T13:48:38;15.80;;;14.30;;
75171;SDS011;63750;52.418;20.742;2022-10-16T13:51:11;16.00;;;14.40;;
75171;SDS011;63750;52.418;20.742;2022-10-16T13:53:41;17.30;;;15.50;;
75171;SDS011;63750;52.418;20.742;2022-10-16T13:56:11;17.40;;;15.60;;
75171;SDS011;63750;52.418;20.742;2022-10-16T13:58:41;16.70;;;14.90;;
75171;SDS011;63750;52.418;20.742;2022-10-16T14:01:16;16.70;;;15.00;;
75171;SDS011;63750;52.418;20.742;2022-10-16T14:03:47;16.50;;;14.90;;
75171;SDS011;63750;52.418;20.742;2022-10-16T14:06:17;16.50;;;14.90;;
75171;SDS011;63750;52.418;20.742;2022-10-16T14:08:48;17.50;;;15.80;;
75171;SDS011;63750;52.418;20.742;2022-10-16T14:11:22;16.80;;;15.20;;
75171;SDS011;63750;52.418;20.742;2022-10-16T14:13:51;17.00;;;15.20;;
75171;SDS011;63750;52.418;20.742;2022-10-16T14:16:21;16.20;;;14.70;;
75171;SDS011;63750;52.418;20.742;2022-10-16T14:18:54;16.00;;;14.50;;
75171;SDS011;63750;52.418;20.742;2022-10-16T14:21:25;17.80;;;14.50;;
75171;SDS011;63750;52.418;20.742;2022-10-16T14:23:54;17.60;;;15.10;;
75171;SDS011;63750;52.418;20.742;2022-10-16T14:26:24;16.10;;;14.60;;
75171;SDS011;63750;52.418;20.742;2022-10-16T14:29:10;16.50;;;14.90;;
75171;SDS011;63750;52.418;20.742;2022-10-16T14:31:41;16.80;;;14.70;;
75171;SDS011;63750;52.418;20.742;2022-10-16T14:34:25;17.50;;;15.70;;
75171;SDS011;63750;52.418;20.742;2022-10-16T14:36:56;17.40;;;15.60;;
75171;SDS011;63750;52.418;20.742;2022-10-16T14:39:27;16.00;;;14.40;;
75171;SDS011;63750;52.418;20.742;2022-10-16T14:41:56;17.80;;;15.90;;